createdAt,value
2023-03-15T00:00:10.319Z,86.23
2023-03-15T00:02:36.978Z,85.49
2023-03-15T00:05:03.773Z,85.80
2023-03-15T00:07:30.723Z,85.07
2023-03-15T00:09:57.880Z,86.19
2023-03-15T00:12:24.513Z,86.92
2023-03-15T00:14:51.555Z,86.97
2023-03-15T00:17:18.316Z,87.39
2023-03-15T00:19:44.936Z,87.31
2023-03-15T00:22:11.710Z,87.17
2023-03-15T00:24:38.360Z,87.72
2023-03-15T00:27:06.178Z,87.71
2023-03-15T00:29:33.189Z,88.94
2023-03-15T00:31:59.833Z,85.73
2023-03-15T00:34:26.584Z,85.63
2023-03-15T00:36:57.708Z,87.79
2023-03-15T00:39:26.001Z,87.63
2023-03-15T00:41:57.007Z,87.44
2023-03-15T00:44:24.742Z,87.74
2023-03-15T00:46:51.514Z,87.50
2023-03-15T00:49:18.505Z,87.69
2023-03-15T00:51:45.090Z,87.77
2023-03-15T00:54:13.999Z,88.67
2023-03-15T00:56:41.399Z,88.21
2023-03-15T00:59:08.838Z,87.93
2023-03-15T01:01:35.743Z,87.84
2023-03-15T01:04:02.372Z,86.49
2023-03-15T01:06:29.844Z,86.21
2023-03-15T01:08:57.478Z,86.15
2023-03-15T01:11:26.839Z,86.95
2023-03-15T01:13:54.751Z,86.11
2023-03-15T01:16:22.043Z,87.92
2023-03-15T01:18:48.835Z,89.06
2023-03-15T01:21:16.086Z,89.47
2023-03-15T01:23:42.916Z,88.74
2023-03-15T01:26:12.600Z,89.74
2023-03-15T01:28:39.405Z,90.83
2023-03-15T01:31:06.245Z,90.68
2023-03-15T01:33:32.974Z,90.02
2023-03-15T01:36:05.946Z,89.80
2023-03-15T01:38:33.656Z,90.84
2023-03-15T01:41:00.593Z,90.76
2023-03-15T01:43:28.876Z,92.53
2023-03-15T01:46:25.506Z,93.43
2023-03-15T01:48:59.926Z,93.53
2023-03-15T01:51:46.029Z,94.46
2023-03-15T01:54:20.009Z,93.58
2023-03-15T01:56:54.254Z,94.28
2023-03-15T01:59:25.460Z,94.42
2023-03-15T02:01:54.728Z,93.99
2023-03-15T02:04:26.121Z,94.10
2023-03-15T02:06:59.471Z,94.66
2023-03-15T02:09:32.824Z,94.47
2023-03-15T02:11:59.942Z,94.74
2023-03-15T02:14:27.019Z,95.13
2023-03-15T02:16:53.694Z,96.02
2023-03-15T02:19:35.582Z,94.74
2023-03-15T02:22:14.172Z,94.74
2023-03-15T02:24:50.400Z,93.69
2023-03-15T02:27:24.448Z,94.48
2023-03-15T02:29:51.266Z,95.54
2023-03-15T02:32:17.895Z,94.14
2023-03-15T02:34:44.584Z,95.22
2023-03-15T02:37:11.483Z,94.02
2023-03-15T02:39:38.064Z,93.89
2023-03-15T02:42:05.196Z,93.01
2023-03-15T02:44:33.063Z,93.60
2023-03-15T02:47:07.743Z,93.10
2023-03-15T02:49:38.668Z,92.52
2023-03-15T02:52:05.902Z,93.34
2023-03-15T02:54:34.482Z,92.93
2023-03-15T02:57:02.588Z,92.29
2023-03-15T02:59:29.297Z,92.53
2023-03-15T03:01:55.881Z,92.16
2023-03-15T03:04:22.844Z,91.55
2023-03-15T03:06:49.619Z,91.27
2023-03-15T03:09:16.330Z,91.44
2023-03-15T03:11:42.993Z,92.08
2023-03-15T03:14:09.604Z,90.99
2023-03-15T03:16:36.400Z,92.70
2023-03-15T03:19:03.324Z,93.58
2023-03-15T03:21:30.633Z,92.92
2023-03-15T03:23:57.380Z,93.62
2023-03-15T03:26:28.243Z,93.81
2023-03-15T03:28:55.976Z,93.60
2023-03-15T03:31:25.378Z,93.79
2023-03-15T03:33:52.737Z,93.31
2023-03-15T03:36:19.757Z,94.70
2023-03-15T03:38:47.291Z,94.17
2023-03-15T03:41:15.387Z,94.16
2023-03-15T03:43:42.331Z,95.35
2023-03-15T03:46:09.319Z,95.80
2023-03-15T03:48:36.040Z,96.00
2023-03-15T03:51:02.632Z,95.98
2023-03-15T03:53:29.249Z,95.26
2023-03-15T03:55:55.948Z,95.18
2023-03-15T03:58:22.782Z,95.70
2023-03-15T04:00:54.438Z,95.86
2023-03-15T04:03:27.406Z,95.19
2023-03-15T04:05:55.061Z,94.51
2023-03-15T04:08:22.363Z,93.22
2023-03-15T04:10:54.015Z,93.14
2023-03-15T04:13:21.529Z,93.41
2023-03-15T04:15:48.750Z,95.01
2023-03-15T04:18:15.719Z,94.78
2023-03-15T04:20:49.457Z,94.41
2023-03-15T04:23:19.304Z,94.82
2023-03-15T04:25:49.143Z,94.13
2023-03-15T04:28:16.048Z,93.98
2023-03-15T04:30:43.350Z,92.94
2023-03-15T04:33:11.081Z,91.86
2023-03-15T04:35:39.572Z,90.83
2023-03-15T04:38:06.863Z,92.18
2023-03-15T04:40:35.344Z,92.08
2023-03-15T04:43:04.065Z,91.96
2023-03-15T04:45:31.907Z,92.50
2023-03-15T04:47:58.930Z,93.22
2023-03-15T04:50:25.863Z,92.90
2023-03-15T04:52:52.610Z,93.30
2023-03-15T04:55:19.540Z,93.28
2023-03-15T04:57:46.192Z,93.64
2023-03-15T05:00:14.404Z,93.87
2023-03-15T05:02:42.144Z,94.41
2023-03-15T05:05:09.489Z,93.82
2023-03-15T05:07:36.658Z,94.21
2023-03-15T05:10:04.608Z,94.32
2023-03-15T05:12:31.690Z,94.56
2023-03-15T05:14:58.365Z,94.35
2023-03-15T05:17:25.047Z,94.44
2023-03-15T05:19:52.050Z,94.30
2023-03-15T05:22:19.352Z,94.75
2023-03-15T05:24:45.932Z,93.80
2023-03-15T05:27:13.804Z,93.72
2023-03-15T05:29:40.403Z,93.17
2023-03-15T05:32:07.368Z,94.48
2023-03-15T05:34:34.033Z,93.87
2023-03-15T05:37:00.864Z,94.57
2023-03-15T05:39:27.577Z,95.56
2023-03-15T05:41:54.202Z,96.98
2023-03-15T05:44:20.933Z,98.39
2023-03-15T05:46:47.589Z,99.38
2023-03-15T05:49:14.224Z,99.81
2023-03-15T05:51:40.876Z,100.00
2023-03-15T05:54:07.505Z,100.00
2023-03-15T05:56:34.138Z,100.00
2023-03-15T05:59:03.109Z,100.00
2023-03-15T06:01:29.688Z,100.00
2023-03-15T06:03:56.433Z,100.00
2023-03-15T06:06:23.054Z,100.00
2023-03-15T06:08:49.643Z,100.00
2023-03-15T06:11:16.189Z,100.00
2023-03-15T06:13:43.057Z,100.00
2023-03-15T06:16:09.630Z,100.00
2023-03-15T06:18:36.227Z,100.00
2023-03-15T06:21:02.830Z,100.00
2023-03-15T06:23:29.421Z,100.00
2023-03-15T06:25:56.096Z,100.00
2023-03-15T06:28:22.735Z,100.00
2023-03-15T06:30:49.413Z,100.00
2023-03-15T06:33:16.970Z,100.00
2023-03-15T06:35:43.832Z,100.00
2023-03-15T06:38:12.608Z,100.00
2023-03-15T06:40:39.641Z,100.00
2023-03-15T06:43:06.941Z,100.00
2023-03-15T06:45:34.394Z,100.00
2023-03-15T06:48:01.078Z,100.00
2023-03-15T06:50:34.452Z,100.00
2023-03-15T06:53:11.105Z,100.00
2023-03-15T06:55:37.932Z,100.00
2023-03-15T06:58:04.592Z,100.00
2023-03-15T07:00:31.288Z,100.00
2023-03-15T07:02:58.616Z,100.00
2023-03-15T07:05:25.344Z,100.00
2023-03-15T07:07:51.884Z,100.00
2023-03-15T07:10:18.674Z,100.00
2023-03-15T07:12:45.403Z,100.00
2023-03-15T07:15:12.307Z,100.00
2023-03-15T07:17:39.179Z,100.00
2023-03-15T07:20:07.319Z,100.00
2023-03-15T07:25:07.794Z,100.00
2023-03-15T07:27:34.675Z,100.00
2023-03-15T07:30:01.691Z,100.00
2023-03-15T07:32:28.489Z,100.00
2023-03-15T07:34:58.414Z,100.00
2023-03-15T07:37:25.475Z,100.00
2023-03-15T07:39:52.248Z,100.00
2023-03-15T07:42:18.923Z,100.00
2023-03-15T07:44:45.571Z,100.00
2023-03-15T07:47:13.030Z,100.00
2023-03-15T07:49:39.617Z,100.00
2023-03-15T07:52:06.608Z,100.00
2023-03-15T07:54:34.581Z,100.00
2023-03-15T07:57:01.550Z,100.00
2023-03-15T07:59:28.428Z,100.00
2023-03-15T08:01:56.022Z,100.00
2023-03-15T08:04:23.103Z,100.00
2023-03-15T08:06:49.872Z,100.00
2023-03-15T08:09:16.752Z,100.00
2023-03-15T08:11:45.273Z,100.00
2023-03-15T08:14:12.825Z,100.00
2023-03-15T08:16:39.694Z,100.00
2023-03-15T08:19:06.643Z,100.00
2023-03-15T08:21:33.953Z,100.00
2023-03-15T08:24:01.033Z,100.00
2023-03-15T08:26:28.402Z,100.00
2023-03-15T08:28:56.078Z,100.00
2023-03-15T08:31:22.878Z,100.00
2023-03-15T08:33:49.761Z,100.00
2023-03-15T08:36:16.602Z,100.00
2023-03-15T08:38:43.271Z,100.00
2023-03-15T08:41:10.702Z,100.00
2023-03-15T08:43:38.651Z,100.00
2023-03-15T08:46:05.634Z,100.00
2023-03-15T08:48:32.755Z,100.00
2023-03-15T08:51:04.429Z,100.00
2023-03-15T08:53:31.491Z,100.00
2023-03-15T08:55:58.527Z,100.00
2023-03-15T08:58:28.839Z,100.00
2023-03-15T09:00:55.909Z,100.00
2023-03-15T09:03:23.312Z,100.00
2023-03-15T09:05:50.040Z,100.00
2023-03-15T09:08:21.248Z,100.00
2023-03-15T09:10:48.377Z,100.00
2023-03-15T09:13:15.387Z,100.00
2023-03-15T09:15:42.510Z,100.00
2023-03-15T09:18:10.101Z,100.00
2023-03-15T09:20:36.845Z,100.00
2023-03-15T09:23:03.621Z,100.00
2023-03-15T09:25:30.936Z,100.00
2023-03-15T09:27:57.509Z,100.00
2023-03-15T09:30:24.573Z,100.00
2023-03-15T09:32:51.748Z,100.00
2023-03-15T09:35:20.551Z,100.00
2023-03-15T09:37:48.333Z,100.00
2023-03-15T09:40:47.574Z,100.00
2023-03-15T09:44:04.755Z,100.00
2023-03-15T09:46:34.382Z,100.00
2023-03-15T09:49:10.206Z,99.85
2023-03-15T09:51:55.625Z,100.00
2023-03-15T09:54:29.572Z,99.64
2023-03-15T09:57:04.513Z,99.07
2023-03-15T09:59:42.892Z,97.81
2023-03-15T10:02:24.062Z,92.35
2023-03-15T10:04:58.364Z,91.80
2023-03-15T10:07:25.365Z,92.18
2023-03-15T10:09:52.038Z,91.61
2023-03-15T10:12:29.345Z,92.34
2023-03-15T10:15:18.326Z,89.86
2023-03-15T10:18:12.009Z,89.57
2023-03-15T10:20:46.443Z,87.98
2023-03-15T10:23:22.841Z,86.98
2023-03-15T10:25:51.429Z,87.49
2023-03-15T10:28:34.812Z,81.26
2023-03-15T10:31:21.520Z,84.37
2023-03-15T10:33:53.758Z,85.46
2023-03-15T10:36:24.762Z,83.87
2023-03-15T10:38:51.765Z,85.70
2023-03-15T10:41:39.337Z,86.78
2023-03-15T10:44:10.721Z,82.59
2023-03-15T10:46:38.086Z,83.29
2023-03-15T10:49:17.030Z,86.21
2023-03-15T10:51:48.503Z,84.40
2023-03-15T10:54:20.671Z,79.36
2023-03-15T10:57:03.342Z,80.27
2023-03-15T10:59:32.395Z,80.96
2023-03-15T11:02:20.803Z,84.39
2023-03-15T11:05:09.494Z,85.13
2023-03-15T11:07:39.878Z,84.57
2023-03-15T11:10:08.469Z,87.03
2023-03-15T11:12:35.399Z,83.37
2023-03-15T11:15:15.840Z,85.10
2023-03-15T11:17:45.060Z,80.95
2023-03-15T11:20:32.390Z,81.67
2023-03-15T11:23:00.291Z,83.23
2023-03-15T11:25:31.727Z,82.05
2023-03-15T11:27:59.511Z,81.76
2023-03-15T11:30:29.873Z,82.76
2023-03-15T11:33:02.407Z,81.47
2023-03-15T11:35:33.293Z,81.09
2023-03-15T11:38:15.328Z,76.82
2023-03-15T11:40:48.331Z,79.83
2023-03-15T11:43:34.249Z,74.38
2023-03-15T11:46:05.388Z,74.29
2023-03-15T11:48:42.984Z,68.93
2023-03-15T11:51:11.681Z,70.10
2023-03-15T11:54:29.868Z,73.47
2023-03-15T11:56:58.427Z,74.60
2023-03-15T11:59:33.887Z,72.75
2023-03-15T12:02:28.817Z,73.55
2023-03-15T12:04:57.104Z,72.73
2023-03-15T12:07:30.095Z,71.77
2023-03-15T12:10:18.409Z,70.42
2023-03-15T12:12:46.821Z,69.52
2023-03-15T12:15:40.147Z,69.45
2023-03-15T12:18:15.787Z,68.26
2023-03-15T12:20:50.395Z,67.18
2023-03-15T12:23:18.457Z,67.47
2023-03-15T12:26:03.622Z,68.21
2023-03-15T12:28:36.639Z,68.06
2023-03-15T12:31:16.228Z,66.09
2023-03-15T12:34:03.969Z,63.92
2023-03-15T12:36:35.964Z,64.75
2023-03-15T12:39:23.067Z,65.96
2023-03-15T12:41:51.469Z,64.01
2023-03-15T12:44:51.623Z,62.20
2023-03-15T12:47:19.072Z,61.93
2023-03-15T12:49:46.365Z,59.30
2023-03-15T12:52:16.882Z,58.26
2023-03-15T12:55:13.432Z,57.87
2023-03-15T12:57:47.156Z,62.05
2023-03-15T13:00:21.717Z,62.52
2023-03-15T13:03:00.911Z,58.80
2023-03-15T13:05:39.471Z,51.30
2023-03-15T13:08:19.528Z,51.70
2023-03-15T13:11:05.015Z,51.56
2023-03-15T13:14:08.390Z,51.47
2023-03-15T13:16:43.795Z,47.44
2023-03-15T13:19:17.645Z,49.51
2023-03-15T13:22:11.806Z,51.49
2023-03-15T13:24:46.972Z,51.21
2023-03-15T13:27:39.068Z,50.75
2023-03-15T13:30:31.855Z,51.83
2023-03-15T13:33:20.392Z,52.58
2023-03-15T13:36:01.681Z,52.88
2023-03-15T13:38:40.429Z,52.69
2023-03-15T13:41:23.133Z,52.80
2023-03-15T13:43:53.503Z,52.47
2023-03-15T13:46:23.427Z,54.32
2023-03-15T13:48:53.607Z,52.40
2023-03-15T13:51:32.324Z,48.97
2023-03-15T13:54:07.832Z,48.61
2023-03-15T13:57:01.742Z,49.29
2023-03-15T13:59:33.685Z,48.96
2023-03-15T14:02:02.835Z,50.36
2023-03-15T14:04:31.747Z,53.70
2023-03-15T14:07:25.904Z,53.20
2023-03-15T14:10:29.616Z,54.86
2023-03-15T14:12:58.337Z,54.13
2023-03-15T14:15:36.669Z,54.47
2023-03-15T14:18:15.167Z,54.10
2023-03-15T14:20:46.375Z,52.71
2023-03-15T14:23:18.356Z,52.58
2023-03-15T14:25:52.262Z,51.94
2023-03-15T14:28:19.468Z,50.61
2023-03-15T14:30:54.128Z,50.13
2023-03-15T14:33:38.511Z,49.84
2023-03-15T14:36:10.026Z,48.94
2023-03-15T14:38:38.836Z,49.77
2023-03-15T14:41:19.956Z,50.02
2023-03-15T14:43:46.654Z,47.81
2023-03-15T14:46:13.348Z,49.14
2023-03-15T14:48:40.204Z,47.95
2023-03-15T14:51:07.075Z,50.49
2023-03-15T14:53:37.662Z,50.16
2023-03-15T14:56:05.394Z,50.02
2023-03-15T14:58:32.850Z,50.14
2023-03-15T15:00:59.706Z,50.48
2023-03-15T15:03:34.083Z,51.69
2023-03-15T15:06:23.081Z,49.95
2023-03-15T15:08:52.599Z,51.68
2023-03-15T15:11:19.296Z,51.27
2023-03-15T15:13:45.930Z,52.04
2023-03-15T15:16:12.638Z,51.29
2023-03-15T15:18:39.354Z,52.88
2023-03-15T15:21:22.552Z,52.93
2023-03-15T15:23:58.295Z,51.53
2023-03-15T15:26:27.851Z,53.48
2023-03-15T15:28:54.750Z,52.95
2023-03-15T15:31:23.341Z,52.99
2023-03-15T15:33:51.147Z,53.55
2023-03-15T15:36:27.216Z,54.72
2023-03-15T15:38:54.119Z,52.90
2023-03-15T15:41:26.262Z,53.55
2023-03-15T15:43:53.296Z,52.02
2023-03-15T15:46:20.255Z,51.92
2023-03-15T15:48:46.979Z,52.17
2023-03-15T15:51:28.524Z,52.68
2023-03-15T15:53:58.032Z,50.79
2023-03-15T15:56:31.270Z,51.80
2023-03-15T15:58:58.638Z,50.63
2023-03-15T16:01:25.665Z,51.17
2023-03-15T16:03:52.679Z,52.18
2023-03-15T16:06:21.527Z,52.96
2023-03-15T16:08:50.930Z,53.44
2023-03-15T16:11:17.911Z,53.41
2023-03-15T16:13:46.087Z,53.45
2023-03-15T16:16:14.996Z,52.36
2023-03-15T16:18:42.968Z,52.69
2023-03-15T16:21:18.862Z,53.90
2023-03-15T16:23:48.283Z,53.53
2023-03-15T16:26:16.375Z,53.89
2023-03-15T16:28:44.417Z,53.97
2023-03-15T16:31:12.818Z,49.72
2023-03-15T16:33:39.848Z,49.59
2023-03-15T16:36:06.901Z,50.50
2023-03-15T16:38:33.679Z,49.61
2023-03-15T16:41:01.145Z,50.61
2023-03-15T16:43:28.941Z,50.59
2023-03-15T16:45:55.756Z,49.65
2023-03-15T16:48:22.408Z,53.22
2023-03-15T16:50:49.153Z,56.51
2023-03-15T16:53:15.869Z,57.93
2023-03-15T16:55:42.549Z,59.33
2023-03-15T16:58:17.832Z,60.46
2023-03-15T17:00:47.102Z,60.50
2023-03-15T17:03:15.176Z,61.16
2023-03-15T17:05:43.954Z,62.82
2023-03-15T17:08:12.931Z,61.61
2023-03-15T17:10:40.754Z,61.47
2023-03-15T17:13:07.873Z,62.22
2023-03-15T17:15:34.523Z,62.65
2023-03-15T17:18:02.899Z,61.50
2023-03-15T17:20:29.728Z,61.05
2023-03-15T17:23:04.105Z,61.17
2023-03-15T17:25:31.503Z,60.68
2023-03-15T17:27:58.176Z,59.69
2023-03-15T17:30:27.864Z,60.33
2023-03-15T17:32:55.013Z,61.82
2023-03-15T17:35:23.793Z,61.49
2023-03-15T17:37:50.871Z,62.82
2023-03-15T17:40:21.590Z,64.85
2023-03-15T17:42:49.229Z,62.29
2023-03-15T17:45:33.418Z,62.02
2023-03-15T17:48:00.817Z,63.60
2023-03-15T17:50:30.199Z,65.52
2023-03-15T17:52:58.947Z,66.19
2023-03-15T17:55:27.054Z,67.16
2023-03-15T17:57:55.364Z,67.70
2023-03-15T18:00:23.400Z,66.99
2023-03-15T18:02:55.559Z,68.05
2023-03-15T18:05:27.581Z,68.85
2023-03-15T18:07:59.310Z,69.22
2023-03-15T18:10:32.023Z,70.00
2023-03-15T18:12:58.787Z,70.20
2023-03-15T18:15:25.547Z,71.69
2023-03-15T18:17:52.236Z,71.57
2023-03-15T18:20:22.292Z,71.80
2023-03-15T18:22:49.006Z,74.68
2023-03-15T18:25:24.859Z,73.96
2023-03-15T18:27:51.805Z,75.57
2023-03-15T18:30:21.452Z,74.47
2023-03-15T18:32:49.141Z,74.79
2023-03-15T18:35:19.127Z,73.70
2023-03-15T18:37:46.208Z,73.72
2023-03-15T18:40:15.118Z,77.28
2023-03-15T18:42:42.990Z,78.35
2023-03-15T18:45:25.494Z,78.23
2023-03-15T18:47:54.764Z,75.40
2023-03-15T18:50:23.383Z,76.04
2023-03-15T18:52:50.471Z,77.74
2023-03-15T18:55:18.758Z,77.48
2023-03-15T18:57:47.713Z,78.19
2023-03-15T19:00:26.689Z,77.80
2023-03-15T19:02:55.145Z,78.97
2023-03-15T19:05:22.304Z,79.22
2023-03-15T19:07:49.014Z,77.93
2023-03-15T19:10:19.385Z,80.70
2023-03-15T19:12:47.220Z,80.54
2023-03-15T19:15:17.673Z,82.62
2023-03-15T19:17:46.093Z,82.08
2023-03-15T19:20:22.867Z,82.04
2023-03-15T19:22:52.108Z,81.71
2023-03-15T19:25:19.996Z,82.32
2023-03-15T19:27:46.916Z,82.84
2023-03-15T19:30:18.274Z,83.20
2023-03-15T19:32:46.978Z,83.76
2023-03-15T19:35:13.961Z,84.04
2023-03-15T19:37:45.804Z,83.27
2023-03-15T19:40:16.310Z,83.61
2023-03-15T19:42:48.088Z,84.28
2023-03-15T19:45:15.992Z,83.97
2023-03-15T19:47:42.638Z,84.41
2023-03-15T19:50:11.222Z,84.77
2023-03-15T19:52:42.467Z,84.97
2023-03-15T19:55:09.756Z,85.96
2023-03-15T19:57:36.733Z,87.78
2023-03-15T20:00:04.133Z,87.75
2023-03-15T20:02:33.090Z,88.59
2023-03-15T20:05:00.599Z,88.37
2023-03-15T20:07:27.322Z,86.45
2023-03-15T20:09:54.002Z,87.04
2023-03-15T20:12:25.223Z,88.11
2023-03-15T20:14:51.932Z,88.65
2023-03-15T20:17:23.665Z,88.56
2023-03-15T20:19:50.392Z,90.29
2023-03-15T20:22:18.579Z,89.58
2023-03-15T20:24:46.058Z,89.46
2023-03-15T20:27:13.473Z,90.11
2023-03-15T20:34:44.127Z,92.05
2023-03-15T20:37:13.643Z,92.65
2023-03-15T20:39:43.909Z,91.71
2023-03-15T20:42:10.883Z,92.04
2023-03-15T20:44:37.662Z,92.72
2023-03-15T20:47:09.368Z,92.36
2023-03-15T20:49:36.386Z,91.73
2023-03-15T20:52:03.799Z,91.40
2023-03-15T20:54:36.276Z,92.03
2023-03-15T20:57:04.895Z,91.22
2023-03-15T20:59:32.323Z,91.08
2023-03-15T21:01:59.027Z,91.21
2023-03-15T21:04:28.814Z,90.75
2023-03-15T21:06:57.116Z,91.35
2023-03-15T21:09:24.022Z,91.54
2023-03-15T21:11:50.826Z,91.00
2023-03-15T21:14:17.571Z,91.29
2023-03-15T21:16:44.225Z,93.19
2023-03-15T21:19:11.116Z,92.84
2023-03-15T21:21:38.076Z,93.54
2023-03-15T21:24:06.666Z,92.98
2023-03-15T21:26:33.408Z,93.26
2023-03-15T21:29:00.218Z,93.81
2023-03-15T21:31:27.010Z,94.58
2023-03-15T21:33:53.640Z,95.02
2023-03-15T21:36:20.647Z,94.78
2023-03-15T21:38:48.464Z,94.10
2023-03-15T21:41:15.197Z,94.19
2023-03-15T21:43:41.877Z,93.69
2023-03-15T21:46:12.165Z,92.93
2023-03-15T21:48:39.017Z,93.20
2023-03-15T21:51:06.959Z,93.63
2023-03-15T21:53:34.315Z,93.21
2023-03-15T21:56:01.663Z,93.15
2023-03-15T21:58:29.460Z,93.89
2023-03-15T22:01:04.807Z,96.13
2023-03-15T22:03:32.855Z,95.62
2023-03-15T22:05:59.550Z,94.88
2023-03-15T22:08:26.743Z,93.60
2023-03-15T22:10:54.567Z,94.17
2023-03-15T22:13:21.705Z,93.24
2023-03-15T22:15:48.489Z,94.59
2023-03-15T22:18:16.075Z,94.40
2023-03-15T22:20:42.847Z,94.30
2023-03-15T22:23:09.508Z,93.14
2023-03-15T22:25:39.299Z,93.75
2023-03-15T22:28:06.555Z,94.53
2023-03-15T22:30:33.325Z,96.29
2023-03-15T22:33:00.212Z,97.19
2023-03-15T22:35:26.976Z,97.06
2023-03-15T22:37:57.254Z,94.94
2023-03-15T22:40:25.783Z,95.35
2023-03-15T22:42:53.015Z,95.63
2023-03-15T22:45:21.070Z,94.81
2023-03-15T22:47:49.236Z,96.39
2023-03-15T22:50:16.739Z,96.34
2023-03-15T22:52:44.140Z,96.09
2023-03-15T22:55:11.880Z,95.93
2023-03-15T22:57:38.833Z,96.20
2023-03-15T23:00:14.090Z,96.39
2023-03-15T23:02:42.058Z,96.76
2023-03-15T23:05:09.335Z,97.00
2023-03-15T23:07:36.165Z,97.17
2023-03-15T23:10:03.891Z,96.82
2023-03-15T23:12:36.156Z,96.45
2023-03-15T23:15:04.510Z,96.53
2023-03-15T23:17:31.629Z,96.71
2023-03-15T23:19:58.342Z,96.98
2023-03-15T23:22:25.166Z,95.90
2023-03-15T23:24:51.944Z,95.21
2023-03-15T23:27:18.707Z,96.71
2023-03-15T23:29:54.152Z,96.59
2023-03-15T23:32:21.746Z,97.49
2023-03-15T23:34:48.739Z,97.21
2023-03-15T23:37:15.553Z,95.08
2023-03-15T23:39:43.083Z,96.13
2023-03-15T23:42:10.654Z,96.71
2023-03-15T23:44:37.891Z,98.40
2023-03-15T23:47:05.907Z,98.85
2023-03-15T23:49:33.159Z,97.98
2023-03-15T23:52:06.045Z,97.67
2023-03-15T23:54:41.397Z,98.82
2023-03-15T23:57:10.005Z,99.24
2023-03-15T23:59:37.300Z,98.44
